KMYF/MYF METAR and TAF weather

Enter ICAO airport designator
Station Type Date Time Source
KMYF METAR 2021/09/16 10:53 UTC NOAA

KMYF 161053Z AUTO 00000KT 10SM OVC018 18/13 A2987 RMK AO2 SLP110 T01830133


Station Type Date Time Source
KMYF Decoded METAR 2021/09/16 10:53 UTC NOAA

SAN DIEGO MONTGOMERY FIELD, CA, United States (KMYF) 32-49N 117-08W 136M
Sep 16, 2021 - 06:53 AM EDT / 2021.09.16 1053 UTC
Wind: Calm:0
Visibility: 10 mile(s):0
Sky conditions: overcast
Temperature: 64.9 F (18.3 C)
Dew Point: 55.9 F (13.3 C)
Relative Humidity: 72%
Pressure (altimeter): 29.87 in. Hg (1011 hPa)
ob: KMYF 161053Z AUTO 00000KT 10SM OVC018 18/13 A2987 RMK AO2 SLP110 T01830133
cycle: 11

Station Type Date Time Source
KMYF TAF UTC NOAA

Error!

Example: see airport list